createdAt,value
2023-10-09T00:02:11.842Z,4.00
2023-10-09T00:04:42.760Z,3.90
2023-10-09T00:07:11.541Z,3.63
2023-10-09T00:09:47.407Z,3.70
2023-10-09T00:12:23.301Z,4.07
2023-10-09T00:14:53.242Z,3.38
2023-10-09T00:17:22.847Z,4.07
2023-10-09T00:19:51.008Z,3.47
2023-10-09T00:22:27.940Z,3.53
2023-10-09T00:25:11.630Z,3.80
2023-10-09T00:27:42.368Z,3.55
2023-10-09T00:30:19.896Z,3.40
2023-10-09T00:33:02.654Z,4.00
2023-10-09T00:35:44.803Z,4.60
2023-10-09T00:38:23.381Z,3.58
2023-10-09T00:41:11.801Z,3.78
2023-10-09T00:43:39.638Z,4.20
2023-10-09T00:46:25.042Z,4.20
2023-10-09T00:49:03.025Z,3.97
2023-10-09T00:51:36.784Z,3.28
2023-10-09T00:54:15.564Z,4.53
2023-10-09T00:56:53.340Z,4.40
2023-10-09T00:59:21.779Z,3.85
2023-10-09T01:01:58.572Z,3.78
2023-10-09T01:04:27.610Z,3.70
2023-10-09T01:07:31.149Z,4.38
2023-10-09T01:09:57.850Z,3.22
2023-10-09T01:12:24.610Z,4.78
2023-10-09T01:14:56.191Z,3.97
2023-10-09T01:17:43.521Z,4.43
2023-10-09T01:20:17.835Z,4.38
2023-10-09T01:22:44.951Z,4.28
2023-10-09T01:25:11.869Z,4.10
2023-10-09T01:27:41.331Z,4.00
2023-10-09T01:30:14.931Z,4.47
2023-10-09T01:32:41.849Z,4.05
2023-10-09T01:35:21.093Z,3.75
2023-10-09T01:37:52.213Z,4.18
2023-10-09T01:40:37.533Z,3.78
2023-10-09T01:43:05.218Z,3.72
2023-10-09T01:45:43.152Z,4.60
2023-10-09T01:48:10.398Z,4.45
2023-10-09T01:50:38.051Z,4.25
2023-10-09T01:53:07.024Z,4.45
2023-10-09T01:55:36.607Z,4.78
2023-10-09T01:58:20.343Z,4.45
2023-10-09T02:00:50.798Z,4.57
2023-10-09T02:03:17.661Z,4.60
2023-10-09T02:05:44.563Z,4.70
2023-10-09T02:08:12.493Z,4.30
2023-10-09T02:10:48.669Z,4.82
2023-10-09T02:13:18.355Z,5.20
2023-10-09T02:15:45.508Z,5.10
2023-10-09T02:18:40.765Z,4.60
2023-10-09T02:21:08.783Z,5.47
2023-10-09T02:23:58.026Z,4.82
2023-10-09T02:26:33.483Z,4.95
2023-10-09T02:29:01.069Z,5.05
2023-10-09T02:31:34.719Z,5.47
2023-10-09T02:34:06.068Z,5.25
2023-10-09T02:36:32.834Z,6.00
2023-10-09T02:39:00.107Z,6.55
2023-10-09T02:41:30.027Z,5.78
2023-10-09T02:43:56.726Z,6.47
2023-10-09T02:46:32.511Z,5.60
2023-10-09T02:48:59.790Z,6.03
2023-10-09T02:51:27.858Z,6.10
2023-10-09T02:54:00.125Z,6.72
2023-10-09T02:56:44.106Z,6.03
2023-10-09T02:59:11.318Z,6.60
2023-10-09T03:01:40.535Z,5.63
2023-10-09T03:04:11.931Z,5.00
2023-10-09T03:06:50.946Z,4.75
2023-10-09T03:09:18.882Z,4.93
2023-10-09T03:11:47.630Z,4.60
2023-10-09T03:14:15.069Z,5.00
2023-10-09T03:16:41.829Z,5.30
2023-10-09T03:19:08.554Z,5.93
2023-10-09T03:21:35.293Z,7.15
2023-10-09T03:24:05.894Z,7.25
2023-10-09T03:26:32.715Z,6.35
2023-10-09T03:29:02.378Z,6.60
2023-10-09T03:31:33.033Z,7.10
2023-10-09T03:34:00.311Z,7.88
2023-10-09T03:36:31.750Z,8.30
2023-10-09T03:38:59.369Z,7.35
2023-10-09T03:41:30.286Z,7.82
2023-10-09T03:43:57.019Z,7.25
2023-10-09T03:46:27.201Z,8.65
2023-10-09T03:48:57.223Z,8.07
2023-10-09T03:51:24.504Z,7.03
2023-10-09T03:53:55.804Z,8.02
2023-10-09T03:56:22.879Z,7.43
2023-10-09T03:58:51.385Z,8.00
2023-10-09T04:01:29.504Z,8.32
2023-10-09T04:04:00.941Z,6.93
2023-10-09T04:06:33.807Z,7.72
2023-10-09T04:09:22.139Z,7.90
2023-10-09T04:12:09.244Z,8.18
2023-10-09T04:14:36.831Z,7.78
2023-10-09T04:17:07.675Z,7.70
2023-10-09T04:19:49.229Z,8.10
2023-10-09T04:22:28.553Z,8.13
2023-10-09T04:24:55.300Z,8.15
2023-10-09T04:27:28.181Z,7.68
2023-10-09T04:29:55.531Z,7.88
2023-10-09T04:32:26.097Z,7.63
2023-10-09T04:35:11.372Z,10.48
2023-10-09T04:37:38.340Z,7.80
2023-10-09T04:40:34.739Z,7.72
2023-10-09T04:43:07.165Z,7.95
2023-10-09T04:45:43.472Z,7.35
2023-10-09T04:48:33.642Z,7.68
2023-10-09T04:51:33.446Z,8.82
2023-10-09T04:54:15.567Z,8.00
2023-10-09T04:56:54.793Z,7.80
2023-10-09T04:59:26.269Z,7.43
2023-10-09T05:01:59.941Z,8.60
2023-10-09T05:04:40.327Z,7.65
2023-10-09T05:07:26.674Z,7.97
2023-10-09T05:10:17.904Z,9.15
2023-10-09T05:12:48.904Z,8.45
2023-10-09T05:15:15.909Z,8.23
2023-10-09T05:17:53.113Z,9.55
2023-10-09T05:20:28.724Z,8.68
2023-10-09T05:22:58.334Z,9.75
2023-10-09T05:25:47.011Z,9.35
2023-10-09T05:28:26.471Z,13.27
2023-10-09T05:31:07.517Z,8.80
2023-10-09T05:33:38.866Z,8.23
2023-10-09T05:36:16.091Z,8.13
2023-10-09T05:38:47.437Z,9.00
2023-10-09T05:41:47.810Z,8.57
2023-10-09T05:44:33.624Z,8.43
2023-10-09T05:47:18.998Z,8.55
2023-10-09T05:49:56.113Z,8.90
2023-10-09T05:52:46.214Z,8.98
2023-10-09T05:55:31.507Z,9.35
2023-10-09T05:58:10.492Z,8.57
2023-10-09T06:00:56.288Z,8.65
2023-10-09T06:03:49.127Z,7.88
2023-10-09T06:06:34.084Z,8.05
2023-10-09T06:09:15.024Z,8.75
2023-10-09T06:11:50.102Z,8.75
2023-10-09T06:14:26.275Z,8.02
2023-10-09T06:19:44.416Z,7.22
2023-10-09T06:22:30.539Z,8.50
2023-10-09T06:24:58.806Z,7.30
2023-10-09T06:27:45.918Z,7.50
2023-10-09T06:30:15.941Z,8.60
2023-10-09T06:32:54.974Z,7.22
2023-10-09T06:35:31.444Z,8.75
2023-10-09T06:38:02.599Z,8.32
2023-10-09T06:40:38.242Z,8.20
2023-10-09T06:43:10.779Z,9.15
2023-10-09T06:45:46.731Z,8.55
2023-10-09T06:51:16.942Z,7.70
2023-10-09T06:53:56.046Z,8.63
2023-10-09T06:56:30.629Z,7.40
2023-10-09T06:59:20.661Z,6.97
2023-10-09T07:01:50.957Z,7.70
2023-10-09T07:04:21.453Z,7.05
2023-10-09T07:06:49.675Z,7.15
2023-10-09T07:09:19.817Z,6.72
2023-10-09T07:11:50.313Z,8.63
2023-10-09T07:14:33.836Z,7.13
2023-10-09T07:17:23.162Z,6.68
2023-10-09T07:19:51.900Z,7.63
2023-10-09T07:22:21.765Z,7.35
2023-10-09T07:24:59.927Z,6.90
2023-10-09T07:27:55.764Z,6.65
2023-10-09T07:30:32.372Z,7.97
2023-10-09T07:33:12.644Z,7.38
2023-10-09T07:35:43.553Z,7.25
2023-10-09T07:38:12.350Z,7.35
2023-10-09T07:40:58.470Z,8.07
2023-10-09T07:43:41.277Z,8.05
2023-10-09T07:46:27.748Z,9.63
2023-10-09T07:48:56.189Z,7.43
2023-10-09T07:51:32.915Z,7.97
2023-10-09T07:54:10.161Z,7.40
2023-10-09T07:56:47.522Z,8.27
2023-10-09T07:59:19.096Z,7.00
2023-10-09T08:01:53.738Z,8.35
2023-10-09T08:04:38.757Z,13.93
2023-10-09T08:08:05.449Z,8.07
2023-10-09T08:10:14.324Z,7.70
2023-10-09T08:12:50.609Z,7.85
2023-10-09T08:15:22.187Z,8.60
2023-10-09T08:17:54.851Z,7.60
2023-10-09T08:20:29.008Z,8.95
2023-10-09T08:22:59.442Z,8.05
2023-10-09T08:25:28.099Z,8.25
2023-10-09T08:28:23.292Z,8.70
2023-10-09T08:31:10.412Z,8.82
2023-10-09T08:36:16.501Z,9.00
2023-10-09T08:38:43.440Z,9.20
2023-10-09T08:41:21.044Z,8.70
2023-10-09T08:43:52.816Z,9.20
2023-10-09T08:46:21.601Z,15.25
2023-10-09T08:48:49.682Z,10.77
2023-10-09T08:51:19.350Z,9.02
2023-10-09T08:53:46.947Z,9.18
2023-10-09T08:56:24.469Z,9.27
2023-10-09T08:58:52.306Z,9.55
2023-10-09T09:01:22.657Z,7.53
2023-10-09T09:03:51.440Z,8.20
2023-10-09T09:06:20.312Z,7.60
2023-10-09T09:08:56.461Z,7.40
2023-10-09T09:11:26.412Z,8.13
2023-10-09T09:14:05.797Z,8.60
2023-10-09T09:16:36.327Z,8.75
2023-10-09T09:19:10.823Z,9.18
2023-10-09T09:21:47.892Z,9.20
2023-10-09T09:24:34.363Z,12.43
2023-10-09T09:27:13.967Z,10.68
2023-10-09T09:29:42.992Z,7.93
2023-10-09T09:32:19.247Z,8.32
2023-10-09T09:34:50.118Z,8.77
2023-10-09T09:37:29.405Z,8.68
2023-10-09T09:40:30.650Z,10.68
2023-10-09T09:43:05.817Z,10.85
2023-10-09T09:45:47.191Z,10.63
2023-10-09T09:48:17.252Z,8.73
2023-10-09T09:50:46.541Z,11.05
2023-10-09T09:53:20.292Z,7.38
2023-10-09T09:56:00.300Z,20.65
2023-10-09T09:58:33.569Z,12.27
2023-10-09T10:01:17.457Z,7.43
2023-10-09T10:03:50.504Z,9.05
2023-10-09T10:06:21.520Z,8.55
2023-10-09T10:08:52.428Z,8.57
2023-10-09T10:11:46.073Z,9.57
2023-10-09T10:14:42.362Z,8.98
2023-10-09T10:17:19.509Z,7.32
2023-10-09T10:20:02.875Z,7.68
2023-10-09T10:22:34.336Z,9.57
2023-10-09T10:25:10.555Z,8.43
2023-10-09T10:27:52.481Z,8.38
2023-10-09T10:30:34.341Z,9.48
2023-10-09T10:33:17.099Z,8.40
2023-10-09T10:35:44.408Z,9.23
2023-10-09T10:38:33.765Z,9.80
2023-10-09T10:41:23.563Z,8.07
2023-10-09T10:43:50.615Z,8.45
2023-10-09T10:46:36.383Z,8.95
2023-10-09T10:49:15.052Z,9.15
2023-10-09T10:51:48.772Z,8.25
2023-10-09T10:54:34.905Z,8.63
2023-10-09T10:57:01.923Z,8.10
2023-10-09T10:59:37.911Z,8.45
2023-10-09T11:02:11.754Z,8.23
2023-10-09T11:04:46.130Z,8.75
2023-10-09T11:07:25.189Z,9.05
2023-10-09T11:10:01.174Z,8.88
2023-10-09T11:12:39.300Z,8.05
2023-10-09T11:15:30.799Z,7.80
2023-10-09T11:18:20.421Z,8.48
2023-10-09T11:20:58.891Z,9.07
2023-10-09T11:23:37.231Z,9.38
2023-10-09T11:26:25.349Z,8.63
2023-10-09T11:29:16.631Z,9.35
2023-10-09T11:31:58.813Z,9.02
2023-10-09T11:34:37.035Z,9.52
2023-10-09T11:37:14.277Z,8.95
2023-10-09T11:39:56.994Z,8.43
2023-10-09T11:42:48.289Z,10.45
2023-10-09T11:45:26.151Z,8.70
2023-10-09T11:48:01.043Z,11.73
2023-10-09T11:51:03.377Z,11.83
2023-10-09T11:53:30.110Z,9.00
2023-10-09T11:55:57.067Z,10.50
2023-10-09T11:58:24.117Z,14.68
2023-10-09T12:01:00.559Z,11.05
2023-10-09T12:03:30.722Z,8.18
2023-10-09T12:06:13.143Z,8.85
2023-10-09T12:08:43.109Z,7.85
2023-10-09T12:11:10.969Z,7.95
2023-10-09T12:13:39.893Z,7.30
2023-10-09T12:16:12.620Z,7.63
2023-10-09T12:18:40.604Z,7.53
2023-10-09T12:21:07.872Z,7.05
2023-10-09T12:23:36.761Z,8.15
2023-10-09T12:26:05.220Z,6.57
2023-10-09T12:28:34.251Z,6.38
2023-10-09T12:31:04.284Z,6.05
2023-10-09T12:33:31.655Z,8.77
2023-10-09T12:36:02.510Z,7.00
2023-10-09T12:38:33.443Z,6.72
2023-10-09T12:41:30.809Z,7.35
2023-10-09T12:44:00.871Z,8.77
2023-10-09T12:46:28.749Z,7.95
2023-10-09T12:48:56.092Z,6.53
2023-10-09T12:51:30.717Z,7.57
2023-10-09T12:54:02.275Z,7.78
2023-10-09T12:56:38.644Z,8.70
2023-10-09T12:59:08.185Z,8.20
2023-10-09T13:01:43.555Z,10.30
2023-10-09T13:04:18.522Z,12.85
2023-10-09T13:06:46.297Z,18.42
2023-10-09T13:09:14.974Z,10.95
2023-10-09T13:11:43.645Z,19.30
2023-10-09T13:14:23.870Z,8.82
2023-10-09T13:16:54.158Z,7.85
2023-10-09T13:19:25.248Z,13.63
2023-10-09T13:21:52.126Z,12.65
2023-10-09T13:24:19.117Z,7.60
2023-10-09T13:26:47.821Z,10.65
2023-10-09T13:29:16.819Z,14.80
2023-10-09T13:31:48.995Z,11.45
2023-10-09T13:34:16.899Z,8.88
2023-10-09T13:36:56.805Z,8.15
2023-10-09T13:39:26.770Z,8.73
2023-10-09T13:41:58.887Z,10.85
2023-10-09T13:44:27.801Z,8.65
2023-10-09T13:46:59.657Z,8.82
2023-10-09T13:49:32.814Z,7.40
2023-10-09T13:52:04.053Z,8.50
2023-10-09T13:54:34.608Z,7.70
2023-10-09T13:57:05.396Z,8.23
2023-10-09T13:59:33.091Z,11.13
2023-10-09T14:02:00.664Z,16.70
2023-10-09T14:04:27.577Z,9.15
2023-10-09T14:07:01.438Z,10.60
2023-10-09T14:09:31.949Z,8.68
2023-10-09T14:12:10.273Z,10.32
2023-10-09T14:14:39.535Z,8.93
2023-10-09T14:17:12.902Z,11.77
2023-10-09T14:19:51.128Z,9.38
2023-10-09T14:22:19.572Z,8.93
2023-10-09T14:24:48.186Z,9.63
2023-10-09T14:27:18.789Z,7.30
2023-10-09T14:29:47.042Z,7.82
2023-10-09T14:32:14.582Z,8.35
2023-10-09T14:34:51.116Z,8.40
2023-10-09T14:37:21.672Z,9.02
2023-10-09T14:39:51.908Z,8.45
2023-10-09T14:42:21.268Z,9.05
2023-10-09T14:44:48.682Z,8.38
2023-10-09T14:47:15.913Z,9.43
2023-10-09T14:49:47.649Z,8.00
2023-10-09T14:52:19.885Z,10.43
2023-10-09T14:54:47.567Z,8.93
2023-10-09T14:57:15.024Z,8.80
2023-10-09T14:59:44.045Z,9.63
2023-10-09T15:02:13.417Z,10.40
2023-10-09T15:04:40.955Z,9.00
2023-10-09T15:07:08.361Z,9.73
2023-10-09T15:09:37.639Z,11.48
2023-10-09T15:12:08.322Z,9.15
2023-10-09T15:14:35.261Z,9.52
2023-10-09T15:17:03.361Z,10.13
2023-10-09T15:19:32.926Z,9.60
2023-10-09T15:22:00.692Z,10.43
2023-10-09T15:24:31.204Z,10.05
2023-10-09T15:26:58.372Z,8.88
2023-10-09T15:29:29.533Z,9.23
2023-10-09T15:31:57.322Z,7.20
2023-10-09T15:34:25.696Z,8.07
2023-10-09T15:36:54.462Z,8.85
2023-10-09T15:39:21.451Z,9.25
2023-10-09T15:41:48.331Z,10.43
2023-10-09T15:44:15.572Z,9.70
2023-10-09T15:46:44.636Z,9.00
2023-10-09T15:49:13.216Z,9.38
2023-10-09T15:51:40.349Z,9.38
2023-10-09T15:54:07.258Z,8.60
2023-10-09T15:56:35.851Z,10.88
2023-10-09T15:59:02.994Z,11.95
2023-10-09T16:01:29.801Z,11.75
2023-10-09T16:03:56.694Z,13.82
2023-10-09T16:06:28.154Z,13.20
2023-10-09T16:08:55.437Z,9.35
2023-10-09T16:11:25.304Z,8.43
2023-10-09T16:13:54.726Z,7.50
2023-10-09T16:16:29.333Z,8.13
2023-10-09T16:18:57.405Z,9.77
2023-10-09T16:21:27.492Z,9.15
2023-10-09T16:24:00.273Z,8.32
2023-10-09T16:26:27.866Z,9.48
2023-10-09T16:28:54.865Z,16.67
2023-10-09T16:31:21.783Z,16.45
2023-10-09T16:33:48.816Z,10.57
2023-10-09T16:36:16.857Z,10.40
2023-10-09T16:38:44.692Z,8.80
2023-10-09T16:41:11.477Z,11.43
2023-10-09T16:43:42.049Z,16.05
2023-10-09T16:46:14.973Z,15.95
2023-10-09T16:48:41.961Z,14.40
2023-10-09T16:51:10.625Z,19.63
2023-10-09T16:53:40.471Z,14.40
2023-10-09T16:56:10.950Z,17.88
2023-10-09T16:58:42.699Z,15.57
2023-10-09T17:01:11.819Z,12.68
2023-10-09T17:03:48.751Z,11.70
2023-10-09T17:06:19.017Z,13.18
2023-10-09T17:08:48.811Z,12.80
2023-10-09T17:11:18.868Z,12.35
2023-10-09T17:13:50.122Z,11.65
2023-10-09T17:16:22.632Z,12.32
2023-10-09T17:18:50.630Z,10.73
2023-10-09T17:21:17.486Z,9.93
2023-10-09T17:23:48.229Z,10.00
2023-10-09T17:26:19.950Z,10.18
2023-10-09T17:28:47.140Z,10.93
2023-10-09T17:31:14.233Z,9.80
2023-10-09T17:33:44.299Z,9.63
2023-10-09T17:36:12.804Z,9.18
2023-10-09T17:38:39.664Z,10.27
2023-10-09T17:41:10.049Z,11.02
2023-10-09T17:43:36.902Z,8.90
2023-10-09T17:46:07.044Z,9.45
2023-10-09T17:48:33.813Z,8.30
2023-10-09T17:51:00.691Z,9.07
2023-10-09T17:53:30.216Z,10.35
2023-10-09T17:55:57.243Z,9.65
2023-10-09T17:58:26.999Z,10.43
2023-10-09T18:01:00.040Z,9.18
2023-10-09T18:03:31.311Z,10.63
2023-10-09T18:05:58.601Z,10.20
2023-10-09T18:08:28.066Z,10.27
2023-10-09T18:11:01.853Z,10.48
2023-10-09T18:13:28.970Z,10.15
2023-10-09T18:16:17.883Z,9.80
2023-10-09T18:18:45.507Z,11.35
2023-10-09T18:21:12.341Z,13.68
2023-10-09T18:23:46.177Z,13.55
2023-10-09T18:26:17.556Z,12.48
2023-10-09T18:28:48.802Z,14.05
2023-10-09T18:31:19.526Z,14.10
2023-10-09T18:33:53.933Z,13.30
2023-10-09T18:36:21.548Z,14.15
2023-10-09T18:38:52.180Z,14.45
2023-10-09T18:41:19.997Z,14.40
2023-10-09T18:43:49.232Z,13.90
2023-10-09T18:46:16.432Z,13.00
2023-10-09T18:48:46.692Z,13.77
2023-10-09T18:51:20.383Z,16.67
2023-10-09T18:53:48.113Z,15.25
2023-10-09T18:56:17.389Z,16.17
2023-10-09T18:58:44.362Z,14.15
2023-10-09T19:01:14.315Z,14.27
2023-10-09T19:03:42.326Z,14.10
2023-10-09T19:06:11.231Z,13.38
2023-10-09T19:08:38.318Z,15.13
2023-10-09T19:11:10.404Z,14.82
2023-10-09T19:13:39.555Z,13.43
2023-10-09T19:16:15.749Z,14.43
2023-10-09T19:18:42.684Z,13.25
2023-10-09T19:21:11.877Z,13.75
2023-10-09T19:23:42.788Z,13.73
2023-10-09T19:26:10.444Z,13.57
2023-10-09T19:28:40.420Z,12.88
2023-10-09T19:31:10.958Z,13.25
2023-10-09T19:33:39.215Z,12.95
2023-10-09T19:36:13.131Z,14.18
2023-10-09T19:38:44.081Z,13.68
2023-10-09T19:41:12.479Z,11.63
2023-10-09T19:43:39.758Z,12.90
2023-10-09T19:46:07.793Z,13.15
2023-10-09T19:48:35.740Z,15.35
2023-10-09T19:51:03.605Z,12.57
2023-10-09T19:53:30.496Z,11.63
2023-10-09T19:55:58.737Z,11.73
2023-10-09T19:58:25.862Z,11.20
2023-10-09T20:00:56.051Z,10.20
2023-10-09T20:03:22.918Z,10.63
2023-10-09T20:05:50.019Z,9.18
2023-10-09T20:08:17.462Z,9.70
2023-10-09T20:10:44.774Z,8.77
2023-10-09T20:13:12.799Z,9.80
2023-10-09T20:15:45.324Z,9.43
2023-10-09T20:18:12.758Z,9.63
2023-10-09T20:20:42.495Z,9.15
2023-10-09T20:23:09.264Z,9.20
2023-10-09T20:25:37.594Z,9.90
2023-10-09T20:28:04.796Z,9.63
2023-10-09T20:30:35.218Z,9.77
2023-10-09T20:33:02.086Z,9.18
2023-10-09T20:35:28.893Z,9.98
2023-10-09T20:37:57.030Z,8.80
2023-10-09T20:40:26.825Z,9.65
2023-10-09T20:42:55.237Z,9.98
2023-10-09T20:45:22.748Z,9.75
2023-10-09T20:47:57.224Z,11.07
2023-10-09T20:50:26.460Z,10.25
2023-10-09T20:52:54.366Z,10.55
2023-10-09T20:55:24.323Z,10.15
2023-10-09T20:57:58.372Z,10.57
2023-10-09T21:00:27.692Z,10.32
2023-10-09T21:02:56.058Z,10.65
2023-10-09T21:05:26.807Z,10.20
2023-10-09T21:07:55.052Z,10.63
2023-10-09T21:10:22.430Z,10.00
2023-10-09T21:12:50.709Z,10.20
2023-10-09T21:15:21.320Z,10.55
2023-10-09T21:17:52.883Z,9.65
2023-10-09T21:20:20.967Z,9.60
2023-10-09T21:22:51.593Z,10.23
2023-10-09T21:25:24.399Z,11.48
2023-10-09T21:27:55.572Z,9.90
2023-10-09T21:30:24.218Z,12.88
2023-10-09T21:32:54.515Z,13.25
2023-10-09T21:35:22.658Z,11.18
2023-10-09T21:37:54.661Z,12.18
2023-10-09T21:40:30.102Z,12.77
2023-10-09T21:42:58.376Z,10.77
2023-10-09T21:45:26.471Z,10.75
2023-10-09T21:47:57.730Z,11.65
2023-10-09T21:50:29.259Z,16.08
2023-10-09T21:53:00.086Z,12.30
2023-10-09T21:55:29.335Z,9.38
2023-10-09T21:57:56.301Z,10.43
2023-10-09T22:00:32.309Z,9.90
2023-10-09T22:03:06.484Z,9.02
2023-10-09T22:05:34.097Z,9.65
2023-10-09T22:08:01.022Z,9.85
2023-10-09T22:10:29.442Z,9.38
2023-10-09T22:12:57.548Z,10.68
2023-10-09T22:15:24.281Z,9.75
2023-10-09T22:17:51.028Z,10.40
2023-10-09T22:20:20.964Z,10.45
2023-10-09T22:22:57.343Z,9.30
2023-10-09T22:25:25.886Z,9.32
2023-10-09T22:28:04.751Z,9.18
2023-10-09T22:30:35.876Z,8.77
2023-10-09T22:33:12.880Z,10.07
2023-10-09T22:35:46.047Z,8.52
2023-10-09T22:38:16.383Z,9.80
2023-10-09T22:40:49.594Z,9.20
2023-10-09T22:43:21.508Z,9.13
2023-10-09T22:45:52.125Z,9.50
2023-10-09T22:48:20.130Z,9.60
2023-10-09T22:50:48.471Z,8.77
2023-10-09T22:53:38.641Z,9.40
2023-10-09T22:56:13.692Z,8.82
2023-10-09T22:58:51.716Z,7.88
2023-10-09T23:01:27.984Z,8.60
2023-10-09T23:04:27.657Z,9.65
2023-10-09T23:07:04.313Z,8.45
2023-10-09T23:09:33.824Z,8.93
2023-10-09T23:12:08.387Z,8.85
2023-10-09T23:14:36.539Z,9.00
2023-10-09T23:17:07.897Z,8.75
2023-10-09T23:19:41.939Z,9.35
2023-10-09T23:22:13.333Z,8.25
2023-10-09T23:25:08.575Z,8.77
2023-10-09T23:27:36.920Z,9.95
2023-10-09T23:30:17.859Z,8.68
2023-10-09T23:32:53.223Z,8.95
2023-10-09T23:35:22.489Z,9.60
2023-10-09T23:38:09.049Z,8.45
2023-10-09T23:43:14.569Z,9.23
2023-10-09T23:45:42.668Z,8.50
2023-10-09T23:48:15.556Z,8.20
2023-10-09T23:50:45.193Z,8.90
2023-10-09T23:53:15.904Z,8.50
2023-10-09T23:55:44.370Z,8.60
2023-10-09T23:58:20.146Z,9.43
